Time;durP1;ratioP1;P1;durP2;ratioP2;P2;SDS_P1;SDS_P2;PMS_P1;PMS_P2;Temp;Humidity;BMP_temperature;BMP_pressure;BME280_temperature;BME280_humidity;BME280_pressure;Samples;Min_cycle;Max_cycle;Signal;HPM_P1;HPM_P2
2022/12/29 00:02:13;;;;;;;;;;;;;;;5.86;97.90;99457.34;4901170;29;20515;-85
2022/12/29 00:04:40;;;;;;;;;;;;;;;5.87;98.03;99459.00;4891679;29;19923;-85
2022/12/29 00:07:07;;;;;;;;;;;;;;;5.90;97.87;99460.56;4899549;29;19990;-85
2022/12/29 00:09:33;;;;;;;;;;;;;;;5.89;97.31;99458.91;4871834;29;19979;-85
2022/12/29 00:12:00;;;;;;;;;;;;;;;5.88;97.93;99451.97;4893912;29;19927;-85
2022/12/29 00:17:12;;;;;;;;;;;;;;;5.83;97.51;99444.41;4891333;29;20276;-85
2022/12/29 00:36:21;;;;;;;;;;;;;;;5.95;97.38;99429.47;4839805;29;20018;-85
2022/12/29 00:44:20;;;;;;;;;;;;;;;5.98;97.49;99428.41;4877915;29;19926;-85
2022/12/29 00:46:47;;;;;;;;;;;;;;;5.97;97.58;99424.09;4874639;29;19928;-85
2022/12/29 00:49:32;;;;;;;;;;;;;;;5.97;97.55;99437.28;4897272;29;19945;-85
2022/12/29 00:51:59;;;;;;;;;;;;;;;5.95;97.61;99431.28;4890077;29;19927;-85
2022/12/29 00:54:28;;;;;;;;;;;;;;;5.94;97.49;99440.97;4902359;29;20413;-85
2022/12/29 00:56:55;;;;;;;;;;;;;;;5.94;97.71;99435.72;4919644;29;20426;-85
2022/12/29 00:59:21;;;;;;;;;;;;;;;5.94;98.10;99434.88;4891186;29;20056;-86
2022/12/29 01:01:48;;;;;;;;;;;;;;;5.92;98.28;99444.66;4886714;29;19978;-85
2022/12/29 01:04:14;;;;;;;;;;;;;;;5.94;98.05;99438.34;4873675;29;19962;-85
2022/12/29 01:06:43;;;;;;;;;;;;;;;5.96;98.20;99439.06;4898527;29;19927;-85
2022/12/29 01:11:55;;;;;;;;;;;;;;;5.97;98.31;99451.28;4862616;29;19963;-86
2022/12/29 01:14:22;;;;;;;;;;;;;;;5.97;98.41;99459.19;4917768;29;20058;-85
2022/12/29 01:16:50;;;;;;;;;;;;;;;5.98;98.26;99462.66;4916815;29;20002;-85
2022/12/29 01:19:17;;;;;;;;;;;;;;;6.00;97.99;99463.38;4911504;29;19966;-86
2022/12/29 01:21:44;;;;;;;;;;;;;;;6.01;98.10;99465.09;4900860;29;20305;-85
2022/12/29 01:24:11;;;;;;;;;;;;;;;5.99;98.82;99459.09;4914704;29;19996;-86
2022/12/29 01:26:38;;;;;;;;;;;;;;;5.97;98.87;99455.72;4913231;29;20366;-85
2022/12/29 01:29:05;;;;;;;;;;;;;;;5.97;98.72;99464.47;4900403;29;19930;-85
2022/12/29 01:31:32;;;;;;;;;;;;;;;5.98;99.06;99454.75;4916264;29;20022;-85
2022/12/29 01:33:59;;;;;;;;;;;;;;;5.96;99.64;99464.59;4914038;29;19923;-85
2022/12/29 01:36:26;;;;;;;;;;;;;;;5.97;99.28;99461.00;4914176;29;19930;-85
2022/12/29 01:38:52;;;;;;;;;;;;;;;5.95;99.74;99460.25;4907671;29;20434;-85
2022/12/29 01:41:19;;;;;;;;;;;;;;;5.95;99.89;99441.81;4892453;29;19931;-85
2022/12/29 01:43:47;;;;;;;;;;;;;;;5.96;99.79;99440.88;4917664;29;19927;-85
2022/12/29 01:46:23;;;;;;;;;;;;;;;5.97;100.00;99443.38;4898909;29;19923;-85
2022/12/29 01:48:52;;;;;;;;;;;;;;;6.00;100.00;99434.41;4874955;29;19965;-85
2022/12/29 01:51:18;;;;;;;;;;;;;;;6.03;100.00;99426.25;4900503;29;19927;-85
2022/12/29 01:53:45;;;;;;;;;;;;;;;6.06;100.00;99431.31;4900445;29;19923;-85
2022/12/29 01:56:12;;;;;;;;;;;;;;;6.10;100.00;99427.47;4870942;29;19946;-85
2022/12/29 01:58:39;;;;;;;;;;;;;;;6.11;100.00;99430.94;4880271;29;19923;-86
2022/12/29 02:01:06;;;;;;;;;;;;;;;6.14;100.00;99428.94;4885957;29;20013;-85
2022/12/29 02:03:34;;;;;;;;;;;;;;;6.19;100.00;99429.41;4891829;29;19935;-85
2022/12/29 02:06:02;;;;;;;;;;;;;;;6.22;100.00;99421.25;4884720;29;20288;-85
2022/12/29 02:08:29;;;;;;;;;;;;;;;6.27;100.00;99432.28;4888588;29;19934;-85
2022/12/29 02:10:56;;;;;;;;;;;;;;;6.33;100.00;99414.31;4890271;29;20018;-85
2022/12/29 02:13:25;;;;;;;;;;;;;;;6.37;100.00;99418.41;4885003;29;19935;-85
2022/12/29 02:16:11;;;;;;;;;;;;;;;6.43;100.00;99412.66;4914047;29;19923;-85
2022/12/29 02:19:01;;;;;;;;;;;;;;;6.45;100.00;99416.84;4874353;29;19930;-85
2022/12/29 02:21:45;;;;;;;;;;;;;;;6.51;100.00;99420.78;4884737;29;20291;-85
2022/12/29 02:24:18;;;;;;;;;;;;;;;6.55;100.00;99410.84;4867193;29;19985;-85
2022/12/29 02:27:01;;;;;;;;;;;;;;;6.58;100.00;99413.25;4900154;29;19930;-85
2022/12/29 02:29:27;;;;;;;;;;;;;;;6.63;100.00;99413.72;4865611;29;19923;-84
2022/12/29 02:32:12;;;;;;;;;;;;;;;6.72;100.00;99415.66;4918207;29;20010;-85
2022/12/29 02:34:51;;;;;;;;;;;;;;;6.77;100.00;99405.56;4878234;29;20398;-85
2022/12/29 02:37:17;;;;;;;;;;;;;;;6.78;100.00;99388.75;4887464;29;20379;-85
2022/12/29 02:39:53;;;;;;;;;;;;;;;6.82;100.00;99373.50;4878953;29;19987;-84
2022/12/29 02:42:20;;;;;;;;;;;;;;;6.83;100.00;99383.94;4885281;29;19923;-85
2022/12/29 02:45:06;;;;;;;;;;;;;;;6.83;100.00;99385.75;4906627;29;19923;-85
2022/12/29 02:47:53;;;;;;;;;;;;;;;6.86;100.00;99380.22;4875784;29;19923;-85
2022/12/29 02:50:25;;;;;;;;;;;;;;;6.89;100.00;99382.63;4887344;29;19923;-85
2022/12/29 02:52:57;;;;;;;;;;;;;;;6.89;100.00;99387.88;4888884;29;19954;-85
2022/12/29 02:55:24;;;;;;;;;;;;;;;6.90;100.00;99390.41;4888808;29;19934;-86
2022/12/29 02:58:06;;;;;;;;;;;;;;;6.91;100.00;99396.53;4905029;29;20013;-85
2022/12/29 03:00:32;;;;;;;;;;;;;;;6.92;100.00;99391.16;4889851;29;20334;-85
2022/12/29 03:03:11;;;;;;;;;;;;;;;6.93;100.00;99384.88;4920299;29;19927;-85
2022/12/29 03:05:43;;;;;;;;;;;;;;;6.91;100.00;99392.09;4888137;29;19923;-85
2022/12/29 03:08:28;;;;;;;;;;;;;;;6.91;100.00;99384.16;4898785;29;19928;-85
2022/12/29 03:12:07;;;;;;;;;;;;;;;6.95;100.00;99385.59;4872372;29;19923;-85
2022/12/29 03:16:45;;;;;;;;;;;;;;;6.99;100.00;99375.63;4835658;29;20013;-85
2022/12/29 03:19:31;;;;;;;;;;;;;;;7.01;100.00;99368.44;4880699;29;19930;-85
2022/12/29 03:22:30;;;;;;;;;;;;;;;7.05;100.00;99361.13;4841159;29;19997;-85
2022/12/29 03:25:23;;;;;;;;;;;;;;;7.05;100.00;99367.22;4811015;29;20010;-85
2022/12/29 03:27:54;;;;;;;;;;;;;;;7.07;100.00;99367.09;4850601;29;19941;-85
2022/12/29 03:30:21;;;;;;;;;;;;;;;7.07;100.00;99359.16;4854380;29;19924;-85
2022/12/29 03:32:49;;;;;;;;;;;;;;;7.08;100.00;99352.94;4871782;29;20947;-84
2022/12/29 03:35:17;;;;;;;;;;;;;;;7.07;100.00;99352.09;4854107;29;19924;-85
2022/12/29 03:37:45;;;;;;;;;;;;;;;7.09;100.00;99351.97;4853921;29;19974;-85
2022/12/29 03:40:12;;;;;;;;;;;;;;;7.10;100.00;99351.03;4875013;29;20063;-84
2022/12/29 03:42:39;;;;;;;;;;;;;;;7.10;100.00;99343.09;4843635;29;19945;-84
2022/12/29 03:45:07;;;;;;;;;;;;;;;7.09;100.00;99351.97;4840752;29;19936;-84
2022/12/29 03:47:33;;;;;;;;;;;;;;;7.10;100.00;99353.66;4855179;29;20014;-84
2022/12/29 03:50:00;;;;;;;;;;;;;;;7.12;100.00;99349.06;4863385;29;20011;-85
2022/12/29 03:52:28;;;;;;;;;;;;;;;7.11;100.00;99348.25;4878388;29;19924;-85
2022/12/29 03:54:55;;;;;;;;;;;;;;;7.14;100.00;99349.78;4867274;29;19927;-85
2022/12/29 03:57:21;;;;;;;;;;;;;;;7.17;100.00;99333.69;4911435;29;20516;-85
2022/12/29 04:00:01;;;;;;;;;;;;;;;7.18;100.00;99341.50;4872246;29;19923;-84
2022/12/29 04:02:29;;;;;;;;;;;;;;;7.19;100.00;99344.97;4915936;29;20005;-84
2022/12/29 04:04:56;;;;;;;;;;;;;;;7.19;100.00;99329.13;4905585;29;19923;-83
2022/12/29 04:07:23;;;;;;;;;;;;;;;7.20;100.00;99329.97;4916774;29;20363;-84
2022/12/29 04:09:52;;;;;;;;;;;;;;;7.22;100.00;99328.03;4891653;29;19923;-84
2022/12/29 04:12:22;;;;;;;;;;;;;;;7.23;100.00;99317.34;4889366;29;19978;-84
2022/12/29 04:14:49;;;;;;;;;;;;;;;7.24;100.00;99319.03;4888905;29;19946;-84
2022/12/29 04:17:17;;;;;;;;;;;;;;;7.25;100.00;99319.84;4886054;29;20294;-84
2022/12/29 04:19:44;;;;;;;;;;;;;;;7.24;100.00;99315.53;4903861;29;19994;-84
2022/12/29 04:22:11;;;;;;;;;;;;;;;7.23;100.00;99303.31;4890412;29;19923;-85
2022/12/29 04:24:39;;;;;;;;;;;;;;;7.24;100.00;99311.09;4890536;29;19927;-84
2022/12/29 04:27:05;;;;;;;;;;;;;;;7.23;100.00;99306.78;4889762;29;19988;-84
2022/12/29 04:29:51;;;;;;;;;;;;;;;7.25;100.00;99304.88;4877961;29;19923;-85
2022/12/29 04:32:33;;;;;;;;;;;;;;;7.25;99.84;99302.22;4873449;29;19923;-84
2022/12/29 04:35:00;;;;;;;;;;;;;;;7.27;100.00;99305.56;4886182;29;20023;-85
2022/12/29 04:37:27;;;;;;;;;;;;;;;7.29;100.00;99300.16;4892802;29;19931;-85
2022/12/29 04:39:54;;;;;;;;;;;;;;;7.30;100.00;99305.31;4888760;29;19927;-84
2022/12/29 04:42:22;;;;;;;;;;;;;;;7.32;100.00;99297.25;4919496;29;19924;-85
2022/12/29 04:44:49;;;;;;;;;;;;;;;7.31;100.00;99285.03;4906529;29;19923;-85
2022/12/29 04:47:45;;;;;;;;;;;;;;;7.32;100.00;99286.69;4862682;29;19930;-84
2022/12/29 04:50:41;;;;;;;;;;;;;;;7.34;100.00;99293.53;4875529;29;20022;-84
2022/12/29 04:53:16;;;;;;;;;;;;;;;7.35;99.94;99292.56;4887762;29;19924;-85
2022/12/29 04:55:47;;;;;;;;;;;;;;;7.36;100.00;99291.59;4909518;29;20731;-85
2022/12/29 04:58:14;;;;;;;;;;;;;;;7.38;99.78;99283.56;4888045;29;19927;-85
2022/12/29 05:00:48;;;;;;;;;;;;;;;7.41;99.25;99293.84;4891871;29;19923;-85
2022/12/29 05:03:15;;;;;;;;;;;;;;;7.44;99.51;99280.38;4905401;29;20033;-84
2022/12/29 05:05:44;;;;;;;;;;;;;;;7.47;99.28;99285.41;4906098;29;19923;-85
2022/12/29 05:08:11;;;;;;;;;;;;;;;7.50;99.08;99277.22;4891347;29;19931;-86
2022/12/29 05:10:38;;;;;;;;;;;;;;;7.52;98.46;99285.03;4895389;29;19982;-86
2022/12/29 05:13:10;;;;;;;;;;;;;;;7.54;98.78;99281.28;4921139;29;19923;-86
2022/12/29 05:15:37;;;;;;;;;;;;;;;7.59;98.59;99292.28;4890697;29;19927;-86
2022/12/29 05:18:04;;;;;;;;;;;;;;;7.60;98.70;99285.19;4889338;29;19938;-86
2022/12/29 05:20:31;;;;;;;;;;;;;;;7.63;98.70;99286.75;4873482;29;20288;-86
2022/12/29 05:22:57;;;;;;;;;;;;;;;7.66;98.44;99287.34;4890811;29;19930;-86
2022/12/29 05:25:24;;;;;;;;;;;;;;;7.68;98.28;99287.19;4889148;29;19982;-85
2022/12/29 05:27:56;;;;;;;;;;;;;;;7.73;98.14;99274.41;4873139;29;20013;-85
2022/12/29 05:30:39;;;;;;;;;;;;;;;7.74;98.10;99270.81;4865541;29;19924;-86
2022/12/29 05:33:06;;;;;;;;;;;;;;;7.75;98.13;99289.19;4901485;29;19975;-85
2022/12/29 05:35:33;;;;;;;;;;;;;;;7.76;98.00;99279.44;4886780;29;20298;-84
2022/12/29 05:38:00;;;;;;;;;;;;;;;7.76;98.46;99290.88;4888877;29;20043;-84
2022/12/29 05:40:27;;;;;;;;;;;;;;;7.79;97.94;99293.25;4888424;29;20363;-84
2022/12/29 05:42:57;;;;;;;;;;;;;;;7.82;98.12;99274.47;4901942;29;20394;-84
2022/12/29 05:45:58;;;;;;;;;;;;;;;7.82;97.19;99298.25;4875743;29;19923;-85
2022/12/29 05:48:46;;;;;;;;;;;;;;;7.89;97.24;99289.81;4856104;29;19935;-85
2022/12/29 05:51:24;;;;;;;;;;;;;;;7.91;97.29;99283.44;4874041;29;19927;-85
2022/12/29 05:53:52;;;;;;;;;;;;;;;7.91;97.53;99283.44;4886863;29;19975;-85
2022/12/29 05:56:19;;;;;;;;;;;;;;;7.89;97.19;99274.78;4884168;29;19962;-85
2022/12/29 05:58:53;;;;;;;;;;;;;;;7.91;97.21;99267.56;4892280;29;19962;-85
2022/12/29 06:01:21;;;;;;;;;;;;;;;7.93;97.42;99272.72;4918582;29;20013;-85
2022/12/29 06:03:48;;;;;;;;;;;;;;;7.96;97.13;99275.06;4916165;29;19937;-85
2022/12/29 06:06:17;;;;;;;;;;;;;;;7.96;97.39;99283.00;4884641;29;19994;-85
2022/12/29 06:08:43;;;;;;;;;;;;;;;7.96;97.21;99278.59;4918123;29;19930;-85
2022/12/29 06:11:10;;;;;;;;;;;;;;;8.00;96.84;99277.34;4889641;29;19997;-85
2022/12/29 06:13:40;;;;;;;;;;;;;;;8.04;97.29;99272.63;4892586;29;19935;-85
2022/12/29 06:16:07;;;;;;;;;;;;;;;8.04;97.00;99262.06;4891267;29;19931;-85
2022/12/29 06:18:34;;;;;;;;;;;;;;;8.07;96.97;99274.16;4876706;29;19922;-85
2022/12/29 06:21:01;;;;;;;;;;;;;;;8.06;96.92;99270.66;4913703;29;20323;-85
2022/12/29 06:23:28;;;;;;;;;;;;;;;8.07;96.87;99282.09;4891647;29;19927;-86
2022/12/29 06:25:54;;;;;;;;;;;;;;;8.06;96.94;99270.66;4901211;29;20385;-85
2022/12/29 06:28:21;;;;;;;;;;;;;;;8.07;96.96;99269.72;4912972;29;19927;-85
2022/12/29 06:30:48;;;;;;;;;;;;;;;8.09;96.83;99267.78;4919140;29;20383;-85
2022/12/29 06:33:16;;;;;;;;;;;;;;;8.10;96.86;99272.09;4889605;29;20355;-85
2022/12/29 06:35:43;;;;;;;;;;;;;;;8.11;96.68;99267.63;4898154;29;19974;-85
2022/12/29 06:38:10;;;;;;;;;;;;;;;8.12;96.65;99269.31;4889898;29;19923;-85
2022/12/29 06:40:36;;;;;;;;;;;;;;;8.13;96.62;99266.53;4916028;29;19979;-85
2022/12/29 06:43:09;;;;;;;;;;;;;;;8.14;96.28;99277.94;4885934;29;20307;-83
2022/12/29 06:45:42;;;;;;;;;;;;;;;8.16;96.41;99289.22;4896944;29;19927;-83
2022/12/29 06:48:09;;;;;;;;;;;;;;;8.16;96.54;99276.00;4892384;29;19973;-84
2022/12/29 06:50:35;;;;;;;;;;;;;;;8.16;96.62;99278.63;4901955;29;20004;-84
2022/12/29 06:53:02;;;;;;;;;;;;;;;8.16;96.88;99276.00;4875446;29;19938;-83
2022/12/29 06:55:28;;;;;;;;;;;;;;;8.17;96.76;99275.03;4897777;29;20371;-83
2022/12/29 06:57:56;;;;;;;;;;;;;;;8.17;97.10;99267.94;4892968;29;19975;-82
2022/12/29 07:00:23;;;;;;;;;;;;;;;8.18;97.01;99279.34;4902088;29;20057;-83
2022/12/29 07:02:50;;;;;;;;;;;;;;;8.19;96.86;99281.00;4914164;29;20449;-83
2022/12/29 07:05:16;;;;;;;;;;;;;;;8.20;96.56;99277.41;4903200;29;19976;-84
2022/12/29 07:07:43;;;;;;;;;;;;;;;8.23;96.48;99272.69;4901129;29;19958;-83
2022/12/29 07:10:10;;;;;;;;;;;;;;;8.24;96.58;99268.22;4913048;29;19927;-83
2022/12/29 07:12:36;;;;;;;;;;;;;;;8.24;96.41;99266.44;4917065;29;23381;-84
2022/12/29 07:15:03;;;;;;;;;;;;;;;8.26;96.50;99271.56;4882494;29;19975;-83
2022/12/29 07:17:29;;;;;;;;;;;;;;;8.26;96.56;99268.94;4890506;29;19929;-83
2022/12/29 07:19:56;;;;;;;;;;;;;;;8.29;96.35;99273.13;4907173;29;20383;-83
2022/12/29 07:22:22;;;;;;;;;;;;;;;8.31;96.06;99274.66;4920847;29;20349;-83
2022/12/29 07:24:49;;;;;;;;;;;;;;;8.33;95.97;99279.81;4919719;29;20564;-83
2022/12/29 07:27:15;;;;;;;;;;;;;;;8.33;95.95;99275.34;4910399;29;19974;-83
2022/12/29 07:29:42;;;;;;;;;;;;;;;8.34;96.13;99282.31;4910051;29;19927;-83
2022/12/29 07:32:08;;;;;;;;;;;;;;;8.33;95.84;99288.59;4897759;29;19987;-83
2022/12/29 07:34:35;;;;;;;;;;;;;;;8.34;95.59;99284.13;4890053;29;19923;-83
2022/12/29 07:37:02;;;;;;;;;;;;;;;8.36;95.61;99279.53;4893096;29;19931;-84
2022/12/29 07:39:29;;;;;;;;;;;;;;;8.36;95.58;99279.53;4860075;29;19922;-84
2022/12/29 07:41:55;;;;;;;;;;;;;;;8.37;95.22;99291.78;4901283;29;20548;-85
2022/12/29 07:44:40;;;;;;;;;;;;;;;8.37;95.41;99294.44;4857256;29;19942;-83
2022/12/29 07:47:29;;;;;;;;;;;;;;;8.39;95.48;99289.84;4907778;29;19930;-83
2022/12/29 07:49:56;;;;;;;;;;;;;;;8.39;95.20;99284.56;4888367;29;19974;-82
2022/12/29 07:52:22;;;;;;;;;;;;;;;8.41;94.97;99269.41;4857858;29;20343;-82
2022/12/29 07:54:49;;;;;;;;;;;;;;;8.42;94.63;99271.94;4855336;29;19923;-83
2022/12/29 07:57:16;;;;;;;;;;;;;;;8.44;94.62;99274.44;4837769;29;19961;-83
2022/12/29 07:59:43;;;;;;;;;;;;;;;8.44;94.48;99275.25;4866356;29;19923;-83
2022/12/29 08:02:11;;;;;;;;;;;;;;;8.47;94.36;99279.44;4873005;29;19966;-84
2022/12/29 08:04:38;;;;;;;;;;;;;;;8.50;94.22;99286.28;4891940;29;19934;-84
2022/12/29 08:07:04;;;;;;;;;;;;;;;8.51;94.14;99288.81;4874496;29;19930;-83
2022/12/29 08:09:33;;;;;;;;;;;;;;;8.53;94.09;99284.22;4883504;29;19931;-83
2022/12/29 08:11:59;;;;;;;;;;;;;;;8.55;93.80;99276.97;4859397;29;19923;-84
2022/12/29 08:14:26;;;;;;;;;;;;;;;8.57;93.54;99279.47;4859126;29;19991;-83
2022/12/29 08:16:52;;;;;;;;;;;;;;;8.56;93.57;99289.22;4868761;29;19949;-83
2022/12/29 08:19:19;;;;;;;;;;;;;;;8.62;90.30;99293.97;4867330;29;20017;-83
2022/12/29 08:21:46;;;;;;;;;;;;;;;8.61;92.90;99294.13;4857105;29;20291;-83
2022/12/29 08:24:12;;;;;;;;;;;;;;;8.62;91.87;99288.66;4867192;29;20438;-85
2022/12/29 08:26:39;;;;;;;;;;;;;;;8.67;92.02;99294.38;4869527;29;20375;-86
2022/12/29 08:29:06;;;;;;;;;;;;;;;8.71;92.25;99307.38;4873088;29;20644;-86
2022/12/29 08:31:32;;;;;;;;;;;;;;;8.74;90.95;99305.28;4862744;29;19930;-87
2022/12/29 08:33:59;;;;;;;;;;;;;;;8.76;91.38;99310.44;4896727;29;20005;-85
2022/12/29 08:36:26;;;;;;;;;;;;;;;8.75;91.66;99304.31;4883737;29;19931;-86
2022/12/29 08:38:53;;;;;;;;;;;;;;;8.76;91.59;99308.63;4883516;29;19927;-84
2022/12/29 08:41:20;;;;;;;;;;;;;;;8.78;91.38;99301.41;4873004;29;20390;-84
2022/12/29 08:43:47;;;;;;;;;;;;;;;8.81;91.64;99327.59;4885082;29;19970;-87
2022/12/29 08:46:14;;;;;;;;;;;;;;;8.88;91.16;99315.47;4899239;29;19979;-88
2022/12/29 08:48:42;;;;;;;;;;;;;;;8.88;90.41;99307.53;4878504;29;19934;-86
2022/12/29 08:51:09;;;;;;;;;;;;;;;8.91;90.46;99324.97;4859253;29;19994;-87
2022/12/29 08:53:36;;;;;;;;;;;;;;;8.94;89.72;99321.19;4887405;29;19929;-86
2022/12/29 08:56:03;;;;;;;;;;;;;;;8.92;89.49;99308.09;4859639;29;19963;-86
2022/12/29 08:58:40;;;;;;;;;;;;;;;9.03;87.62;99326.50;4867473;29;20375;-83
2022/12/29 09:01:07;;;;;;;;;;;;;;;9.04;88.06;99314.09;4888365;29;19968;-84
2022/12/29 09:03:34;;;;;;;;;;;;;;;9.07;86.39;99321.75;4872781;29;20259;-84
2022/12/29 09:06:23;;;;;;;;;;;;;;;9.06;88.51;99331.53;4836338;29;20071;-83
2022/12/29 09:08:53;;;;;;;;;;;;;;;9.10;87.99;99324.13;4885143;29;20054;-83
2022/12/29 09:11:26;;;;;;;;;;;;;;;9.10;88.31;99329.44;4852426;29;20026;-83
2022/12/29 09:13:53;;;;;;;;;;;;;;;9.09;88.40;99331.25;4881009;29;19938;-83
2022/12/29 09:16:20;;;;;;;;;;;;;;;9.08;88.52;99331.38;4872918;29;20025;-85
2022/12/29 09:18:47;;;;;;;;;;;;;;;9.07;88.50;99327.88;4874732;29;19966;-86
2022/12/29 09:21:14;;;;;;;;;;;;;;;9.11;88.35;99331.13;4916637;29;19935;-85
2022/12/29 09:23:40;;;;;;;;;;;;;;;9.11;88.78;99336.41;4902243;29;19927;-84
2022/12/29 09:26:08;;;;;;;;;;;;;;;9.15;88.79;99347.56;4904718;29;20390;-85
2022/12/29 09:28:35;;;;;;;;;;;;;;;9.16;89.17;99346.56;4890860;29;20407;-85
2022/12/29 09:31:01;;;;;;;;;;;;;;;9.19;88.71;99343.66;4918407;29;19976;-85
2022/12/29 09:33:28;;;;;;;;;;;;;;;9.19;88.82;99341.00;4904046;29;20383;-84
2022/12/29 09:35:55;;;;;;;;;;;;;;;9.20;88.81;99358.56;4905300;29;19935;-85
2022/12/29 09:38:22;;;;;;;;;;;;;;;9.17;88.83;99345.63;4901551;29;20564;-84
2022/12/29 09:40:50;;;;;;;;;;;;;;;9.18;88.28;99331.38;4915762;29;19973;-85
2022/12/29 09:43:23;;;;;;;;;;;;;;;9.20;88.62;99326.78;4913357;29;19931;-85
2022/12/29 09:45:55;;;;;;;;;;;;;;;9.25;87.61;99330.69;4891648;29;19923;-86
2022/12/29 09:48:23;;;;;;;;;;;;;;;9.24;88.57;99336.97;4904997;29;20402;-84
2022/12/29 09:50:51;;;;;;;;;;;;;;;9.23;88.42;99340.56;4896094;29;20291;-82
2022/12/29 09:53:21;;;;;;;;;;;;;;;9.25;88.16;99353.69;4853630;29;19931;-85
2022/12/29 09:55:48;;;;;;;;;;;;;;;9.22;89.02;99353.97;4901246;29;25098;-84
2022/12/29 09:58:18;;;;;;;;;;;;;;;9.23;89.45;99360.94;4860028;29;20367;-83
2022/12/29 10:00:49;;;;;;;;;;;;;;;9.22;89.87;99354.81;4901934;29;19927;-84
2022/12/29 10:03:21;;;;;;;;;;;;;;;9.21;89.68;99358.44;4887949;29;20287;-84
2022/12/29 10:05:54;;;;;;;;;;;;;;;9.20;90.03;99371.81;4921721;29;19927;-83
2022/12/29 10:08:29;;;;;;;;;;;;;;;9.20;90.14;99364.69;4890945;29;20365;-84
2022/12/29 10:10:57;;;;;;;;;;;;;;;9.29;89.48;99361.22;4895105;29;20034;-84
2022/12/29 10:13:26;;;;;;;;;;;;;;;9.25;89.57;99367.78;4888599;29;19974;-84
2022/12/29 10:15:59;;;;;;;;;;;;;;;9.24;90.06;99371.41;4901479;29;20340;-83
2022/12/29 10:18:32;;;;;;;;;;;;;;;9.33;90.87;99373.22;4903188;29;20291;-83
2022/12/29 10:21:09;;;;;;;;;;;;;;;9.34;91.04;99384.66;4883528;29;19929;-84
2022/12/29 10:23:40;;;;;;;;;;;;;;;9.33;91.33;99383.81;4899785;29;19933;-84
2022/12/29 10:26:10;;;;;;;;;;;;;;;9.34;91.66;99382.84;4902099;29;19979;-82
2022/12/29 10:28:43;;;;;;;;;;;;;;;9.32;91.92;99368.06;4912431;29;19927;-84
2022/12/29 10:31:14;;;;;;;;;;;;;;;9.33;92.16;99372.38;4903019;29;19931;-83
2022/12/29 10:33:43;;;;;;;;;;;;;;;9.31;93.16;99384.91;4865907;29;19931;-83
2022/12/29 10:36:15;;;;;;;;;;;;;;;9.31;92.72;99390.22;4885337;29;19926;-83
2022/12/29 10:38:47;;;;;;;;;;;;;;;9.32;93.52;99394.56;4886832;29;20018;-83
2022/12/29 10:41:15;;;;;;;;;;;;;;;9.31;92.88;99385.78;4890805;29;21208;-84
2022/12/29 10:43:46;;;;;;;;;;;;;;;9.32;94.74;99389.25;4899303;29;19943;-85
2022/12/29 10:46:13;;;;;;;;;;;;;;;9.31;94.75;99391.09;4891709;29;19962;-84
2022/12/29 10:48:45;;;;;;;;;;;;;;;9.31;94.58;99390.22;4856613;29;19930;-85
2022/12/29 10:51:11;;;;;;;;;;;;;;;9.32;94.79;99384.78;4896940;29;20057;-82
2022/12/29 10:53:40;;;;;;;;;;;;;;;9.34;94.61;99382.00;4893534;29;20351;-84
2022/12/29 10:56:13;;;;;;;;;;;;;;;9.36;95.59;99372.09;4879384;29;19977;-85
2022/12/29 10:58:39;;;;;;;;;;;;;;;9.39;95.36;99381.56;4895136;29;19974;-84
2022/12/29 11:01:12;;;;;;;;;;;;;;;9.39;95.05;99379.78;4891549;29;19945;-81
2022/12/29 11:03:44;;;;;;;;;;;;;;;9.41;94.45;99390.22;4885157;29;19927;-82
2022/12/29 11:06:18;;;;;;;;;;;;;;;9.43;94.45;99378.50;4908065;29;19922;-81
2022/12/29 11:08:49;;;;;;;;;;;;;;;9.45;94.04;99381.88;4903487;29;19931;-82
2022/12/29 11:11:21;;;;;;;;;;;;;;;9.48;93.79;99380.75;4879207;29;20390;-85
2022/12/29 11:13:56;;;;;;;;;;;;;;;9.49;93.09;99385.94;4853061;29;19955;-85
2022/12/29 11:16:33;;;;;;;;;;;;;;;9.49;92.35;99391.22;4873882;29;20802;-85
2022/12/29 11:19:01;;;;;;;;;;;;;;;9.48;92.73;99389.53;4859589;29;19923;-84
2022/12/29 11:21:41;;;;;;;;;;;;;;;9.50;92.98;99386.75;4918215;29;19923;-85
2022/12/29 11:24:18;;;;;;;;;;;;;;;9.51;93.22;99391.06;4875820;29;19930;-84
2022/12/29 11:26:45;;;;;;;;;;;;;;;9.51;93.53;99412.28;4882739;29;19983;-85
2022/12/29 11:29:25;;;;;;;;;;;;;;;9.50;93.37;99392.06;4888011;29;20435;-84
2022/12/29 11:31:54;;;;;;;;;;;;;;;9.50;93.46;99408.78;4879071;29;19923;-84
2022/12/29 11:34:20;;;;;;;;;;;;;;;9.50;93.69;99413.25;4914698;29;19934;-84
2022/12/29 11:36:47;;;;;;;;;;;;;;;9.52;93.71;99408.66;4909773;28;20397;-84
2022/12/29 11:39:28;;;;;;;;;;;;;;;9.55;93.80;99405.72;4886550;29;20287;-84
2022/12/29 11:41:54;;;;;;;;;;;;;;;9.68;92.78;99403.63;4859257;29;19926;-85
2022/12/29 11:44:21;;;;;;;;;;;;;;;9.67;93.07;99406.44;4906383;29;20009;-85
2022/12/29 11:46:49;;;;;;;;;;;;;;;9.68;93.29;99398.31;4877179;29;19931;-85
2022/12/29 11:49:19;;;;;;;;;;;;;;;9.68;93.71;99403.63;4874116;29;20303;-85
2022/12/29 11:51:46;;;;;;;;;;;;;;;9.70;94.16;99406.97;4850326;29;20023;-85
2022/12/29 11:54:24;;;;;;;;;;;;;;;9.69;93.44;99401.81;4845004;29;20328;-83
2022/12/29 11:56:51;;;;;;;;;;;;;;;9.69;93.74;99401.81;4841892;29;19928;-83
2022/12/29 11:59:26;;;;;;;;;;;;;;;9.72;93.40;99397.06;4828779;29;19924;-84
2022/12/29 12:01:53;;;;;;;;;;;;;;;9.75;93.99;99390.66;4762292;29;20514;-81
2022/12/29 12:04:21;;;;;;;;;;;;;;;9.80;92.98;99396.38;4781317;29;20480;-81
2022/12/29 12:07:07;;;;;;;;;;;;;;;9.76;93.20;99379.06;4797129;29;20878;-81
2022/12/29 12:09:35;;;;;;;;;;;;;;;9.72;93.13;99385.63;4802277;29;20016;-81
2022/12/29 12:12:01;;;;;;;;;;;;;;;9.72;92.89;99381.16;4802706;29;19925;-81
2022/12/29 12:14:35;;;;;;;;;;;;;;;9.75;92.86;99385.34;4808122;29;19924;-81
2022/12/29 12:17:18;;;;;;;;;;;;;;;9.78;93.13;99379.75;4770239;29;19924;-82
2022/12/29 12:20:08;;;;;;;;;;;;;;;9.80;92.83;99375.16;4789003;29;19932;-81
2022/12/29 12:22:36;;;;;;;;;;;;;;;9.83;92.71;99366.91;4796006;29;19924;-84
2022/12/29 12:25:07;;;;;;;;;;;;;;;9.85;92.24;99364.13;4834588;29;20122;-81
2022/12/29 12:27:43;;;;;;;;;;;;;;;9.84;92.54;99363.25;4836383;29;20318;-83
2022/12/29 12:30:09;;;;;;;;;;;;;;;9.83;92.43;99369.56;4847235;29;19960;-82
2022/12/29 12:32:42;;;;;;;;;;;;;;;9.83;92.62;99368.72;4827258;29;19923;-84
2022/12/29 12:35:12;;;;;;;;;;;;;;;9.83;92.53;99363.41;4913916;29;19936;-83
2022/12/29 12:37:47;;;;;;;;;;;;;;;9.82;92.22;99375.84;4917119;29;19923;-84
2022/12/29 12:40:19;;;;;;;;;;;;;;;9.81;92.30;99368.84;4893809;29;20010;-84
2022/12/29 12:42:51;;;;;;;;;;;;;;;9.82;92.52;99372.34;4797710;29;19930;-84
2022/12/29 12:45:24;;;;;;;;;;;;;;;9.81;92.54;99370.69;4845829;29;19924;-84
2022/12/29 12:48:08;;;;;;;;;;;;;;;9.82;92.47;99370.53;4827413;29;19942;-82
2022/12/29 12:50:38;;;;;;;;;;;;;;;9.83;92.57;99368.72;4831089;29;19955;-79
2022/12/29 12:53:19;;;;;;;;;;;;;;;9.83;92.88;99366.91;4836210;29;19923;-87
2022/12/29 12:55:49;;;;;;;;;;;;;;;9.86;93.16;99363.97;4816224;29;20002;-86
2022/12/29 12:58:23;;;;;;;;;;;;;;;9.86;93.11;99371.91;4848527;29;19924;-85
2022/12/29 13:00:58;;;;;;;;;;;;;;;9.86;93.12;99363.97;4838470;29;19977;-85
2022/12/29 13:03:41;;;;;;;;;;;;;;;9.88;92.93;99366.47;4819220;29;20339;-85
2022/12/29 13:06:15;;;;;;;;;;;;;;;9.87;92.67;99355.03;4840174;29;20064;-87
2022/12/29 13:09:00;;;;;;;;;;;;;;;9.86;92.30;99360.47;4905431;29;19923;-90
2022/12/29 13:12:05;;;;;;;;;;;;;;;9.86;92.26;99356.00;4883390;29;19923;-89
2022/12/29 13:14:35;;;;;;;;;;;;;;;9.87;92.21;99359.50;4814644;29;19928;-88
2022/12/29 13:17:20;;;;;;;;;;;;;;;9.86;92.43;99344.56;4820883;29;19925;-88
2022/12/29 13:19:47;;;;;;;;;;;;;;;9.86;92.42;99334.78;4840071;29;19974;-79
2022/12/29 13:22:25;;;;;;;;;;;;;;;9.84;92.56;99333.25;4899340;29;19958;-79
2022/12/29 13:25:21;;;;;;;;;;;;;;;9.84;92.75;99325.31;4855156;29;19974;-79
2022/12/29 13:27:47;;;;;;;;;;;;;;;9.85;92.60;99332.31;4861186;29;19929;-80
2022/12/29 13:30:18;;;;;;;;;;;;;;;9.86;92.75;99332.13;4895289;29;20282;-79
2022/12/29 13:33:06;;;;;;;;;;;;;;;9.92;94.12;99326.28;4870077;29;19926;-79
2022/12/29 13:35:37;;;;;;;;;;;;;;;9.94;93.46;99316.34;4879046;29;20409;-79
2022/12/29 13:38:15;;;;;;;;;;;;;;;9.92;93.34;99323.63;4878936;29;19965;-80
2022/12/29 13:40:43;;;;;;;;;;;;;;;9.92;93.66;99328.06;4853208;29;19924;-80
2022/12/29 13:43:10;;;;;;;;;;;;;;;9.93;93.41;99337.72;4884169;29;20018;-81
2022/12/29 13:45:36;;;;;;;;;;;;;;;9.92;93.75;99352.81;4885176;29;19930;-80